Time;durP1;ratioP1;P1;durP2;ratioP2;P2;SDS_P1;SDS_P2;PMS_P1;PMS_P2;Temp;Humidity;BMP_temperature;BMP_pressure;BME280_temperature;BME280_humidity;BME280_pressure;Samples;Min_cycle;Max_cycle;Signal;HPM_P1;HPM_P2
2023/02/26 00:00:56;;;;;;;2.87;1.63;;;2.60;99.90;;;;;;5010939;28;20717;-77
2023/02/26 00:03:22;;;;;;;2.43;1.20;;;2.60;99.90;;;;;;5013327;28;21171;-77
2023/02/26 00:05:47;;;;;;;3.17;1.13;;;2.60;99.90;;;;;;5031254;28;20278;-76
2023/02/26 00:08:13;;;;;;;3.07;1.20;;;2.60;99.90;;;;;;5031287;28;20172;-76
2023/02/26 00:10:39;;;;;;;3.70;1.27;;;2.60;99.90;;;;;;5013902;28;20583;-76
2023/02/26 00:13:05;;;;;;;3.03;1.27;;;2.60;99.90;;;;;;5031450;28;20224;-76
2023/02/26 00:15:31;;;;;;;3.35;1.23;;;2.60;99.90;;;;;;5033998;28;20229;-78
2023/02/26 00:18:15;;;;;;;6.18;1.85;;;2.70;99.90;;;;;;5017929;28;20216;-78
2023/02/26 00:20:44;;;;;;;2.33;1.10;;;2.70;99.90;;;;;;5019211;28;20642;-76
2023/02/26 00:23:16;;;;;;;2.20;1.15;;;2.80;99.90;;;;;;5030696;28;20170;-77
2023/02/26 00:25:42;;;;;;;2.65;1.02;;;2.80;99.90;;;;;;4996671;28;20553;-77
2023/02/26 00:28:08;;;;;;;5.43;1.57;;;2.90;99.90;;;;;;5031598;28;20646;-77
2023/02/26 00:30:34;;;;;;;2.67;1.17;;;3.00;99.90;;;;;;4996756;28;20169;-76
2023/02/26 00:33:01;;;;;;;2.30;1.30;;;3.00;99.90;;;;;;5031187;28;20201;-76
2023/02/26 00:35:27;;;;;;;4.68;1.45;;;3.10;99.90;;;;;;4997089;28;20221;-76
2023/02/26 00:38:08;;;;;;;5.07;1.25;;;3.20;99.90;;;;;;5012953;28;20642;-77
2023/02/26 00:40:49;;;;;;;2.67;1.42;;;3.20;99.90;;;;;;5030798;28;20197;-76
2023/02/26 00:43:17;;;;;;;6.30;1.20;;;3.30;99.90;;;;;;5013039;28;20709;-77
2023/02/26 00:45:52;;;;;;;3.50;1.67;;;3.30;99.90;;;;;;5032253;28;20852;-77
2023/02/26 00:48:18;;;;;;;3.40;1.20;;;3.30;99.90;;;;;;5017183;28;20173;-77
2023/02/26 00:51:27;;;;;;;3.20;1.20;;;3.40;99.90;;;;;;5001658;28;20176;-78
2023/02/26 00:54:01;;;;;;;4.47;1.00;;;3.40;99.90;;;;;;5022775;28;20228;-77
2023/02/26 00:56:27;;;;;;;4.65;1.17;;;3.50;99.90;;;;;;5017123;28;20212;-77
2023/02/26 00:58:53;;;;;;;2.60;1.00;;;3.50;99.90;;;;;;5018211;28;20182;-78
2023/02/26 01:01:19;;;;;;;2.70;1.10;;;3.50;99.90;;;;;;5000714;28;20181;-77
2023/02/26 01:03:45;;;;;;;3.37;1.27;;;3.60;99.90;;;;;;5000263;28;20268;-77
2023/02/26 01:06:16;;;;;;;2.83;1.05;;;3.60;99.90;;;;;;5016557;28;20198;-76
2023/02/26 01:08:59;;;;;;;2.83;1.23;;;3.60;99.90;;;;;;5034306;28;20174;-77
2023/02/26 01:11:25;;;;;;;6.45;0.90;;;3.60;99.90;;;;;;5034327;28;20170;-76
2023/02/26 01:13:51;;;;;;;3.03;1.57;;;3.60;99.90;;;;;;4999360;28;20232;-76
2023/02/26 01:16:23;;;;;;;1.90;0.90;;;3.50;99.90;;;;;;4999654;28;20205;-76
2023/02/26 01:18:55;;;;;;;3.25;0.90;;;3.50;99.90;;;;;;5034617;28;20581;-76
2023/02/26 01:21:31;;;;;;;1.88;0.90;;;3.50;99.90;;;;;;5016233;28;20173;-77
2023/02/26 01:24:01;;;;;;;3.60;1.15;;;3.40;99.90;;;;;;5034635;28;20173;-76
2023/02/26 01:26:28;;;;;;;3.80;1.00;;;3.40;99.90;;;;;;5016446;28;20371;-77
2023/02/26 01:28:54;;;;;;;2.80;0.88;;;3.30;99.90;;;;;;5018948;28;20174;-76
2023/02/26 01:31:47;;;;;;;3.42;0.85;;;3.20;99.90;;;;;;5015665;28;20268;-77
2023/02/26 01:34:51;;;;;;;4.43;1.00;;;3.20;99.90;;;;;;5016036;28;20181;-76
2023/02/26 01:37:33;;;;;;;1.90;0.95;;;3.10;99.90;;;;;;4953339;29;20227;-77
2023/02/26 01:40:27;;;;;;;4.03;0.90;;;3.00;99.90;;;;;;5012437;28;20212;-77
2023/02/26 01:43:01;;;;;;;4.82;1.00;;;3.00;99.90;;;;;;5015671;28;20592;-77
2023/02/26 01:45:38;;;;;;;4.90;0.90;;;2.90;99.90;;;;;;5015757;28;20233;-77
2023/02/26 01:48:10;;;;;;;1.45;0.68;;;2.80;99.90;;;;;;5015502;28;20182;-77
2023/02/26 01:50:37;;;;;;;5.13;1.00;;;2.80;99.90;;;;;;5015758;28;20673;-77
2023/02/26 01:53:20;;;;;;;2.88;1.00;;;2.70;99.90;;;;;;5015288;28;20193;-76
2023/02/26 01:55:53;;;;;;;3.05;0.90;;;2.60;99.90;;;;;;5035531;28;20245;-79
2023/02/26 01:58:21;;;;;;;4.28;1.50;;;2.60;99.90;;;;;;5031874;28;20205;-78
2023/02/26 02:00:47;;;;;;;2.63;1.00;;;2.60;99.90;;;;;;5032785;28;20170;-78
2023/02/26 02:03:12;;;;;;;4.27;0.90;;;2.60;99.90;;;;;;5030219;28;20219;-78
2023/02/26 02:06:01;;;;;;;2.80;1.00;;;2.50;99.90;;;;;;5008071;28;20256;-79
2023/02/26 02:08:28;;;;;;;3.38;1.00;;;2.50;99.90;;;;;;5003052;28;20174;-78
2023/02/26 02:10:54;;;;;;;3.85;1.02;;;2.60;99.90;;;;;;5025803;28;20186;-79
2023/02/26 02:13:31;;;;;;;1.58;0.90;;;2.60;99.90;;;;;;5026041;28;20220;-78
2023/02/26 02:16:12;;;;;;;5.22;1.10;;;2.60;99.90;;;;;;5033101;28;20283;-78
2023/02/26 02:18:57;;;;;;;2.55;1.10;;;2.70;99.90;;;;;;5002578;28;20201;-79
2023/02/26 02:21:42;;;;;;;3.28;1.05;;;2.70;99.90;;;;;;5006073;28;20182;-78
2023/02/26 02:24:12;;;;;;;2.05;1.00;;;2.80;99.90;;;;;;4991181;28;20196;-79
2023/02/26 02:26:44;;;;;;;3.50;0.90;;;2.80;99.90;;;;;;5004044;28;20193;-78
2023/02/26 02:29:47;;;;;;;2.00;1.13;;;2.80;99.90;;;;;;5004076;28;20256;-79
2023/02/26 02:32:21;;;;;;;1.80;0.80;;;2.80;99.90;;;;;;5003516;28;20201;-79
2023/02/26 02:35:11;;;;;;;5.15;1.13;;;2.80;99.90;;;;;;5033742;28;20184;-78
2023/02/26 02:37:45;;;;;;;2.72;0.90;;;2.80;99.90;;;;;;5030960;28;20759;-78
2023/02/26 02:40:16;;;;;;;5.40;1.00;;;2.80;99.90;;;;;;5028755;28;20173;-78
2023/02/26 02:42:57;;;;;;;2.10;0.80;;;2.70;99.90;;;;;;5006664;28;20340;-78
2023/02/26 02:45:37;;;;;;;4.63;1.73;;;2.70;99.90;;;;;;5011050;28;20189;-78
2023/02/26 02:48:20;;;;;;;2.05;0.88;;;2.70;99.90;;;;;;5009503;28;20184;-78
2023/02/26 02:50:50;;;;;;;2.22;0.88;;;2.60;99.90;;;;;;5041234;28;20184;-78
2023/02/26 02:53:22;;;;;;;7.70;1.05;;;2.60;99.90;;;;;;5005701;28;20205;-78
2023/02/26 02:55:56;;;;;;;2.88;1.00;;;2.50;99.90;;;;;;5005283;28;20189;-78
2023/02/26 02:58:30;;;;;;;3.00;1.10;;;2.50;99.90;;;;;;5019922;28;20224;-78
2023/02/26 03:01:01;;;;;;;3.85;0.80;;;2.50;99.90;;;;;;5001138;28;20265;-78
2023/02/26 03:03:34;;;;;;;2.47;0.90;;;2.40;99.90;;;;;;5000190;28;20177;-78
2023/02/26 03:06:00;;;;;;;1.65;1.00;;;2.40;99.90;;;;;;5016254;28;20202;-77
2023/02/26 03:08:33;;;;;;;1.52;0.90;;;2.40;99.90;;;;;;5015354;28;20177;-78
2023/02/26 03:10:58;;;;;;;2.88;0.82;;;2.30;99.90;;;;;;5041128;28;20178;-77
2023/02/26 03:13:25;;;;;;;4.18;1.10;;;2.30;99.90;;;;;;5004387;28;20641;-77
2023/02/26 03:16:15;;;;;;;3.03;1.10;;;2.30;99.90;;;;;;5018135;28;20201;-77
2023/02/26 03:19:03;;;;;;;4.90;1.00;;;2.20;99.90;;;;;;4998702;28;20176;-76
2023/02/26 03:22:00;;;;;;;2.13;1.00;;;2.20;99.90;;;;;;5011104;28;20174;-77
2023/02/26 03:25:05;;;;;;;3.75;0.80;;;2.10;99.90;;;;;;5001346;28;20167;-77
2023/02/26 03:27:34;;;;;;;2.08;0.82;;;2.10;99.90;;;;;;5001149;28;20277;-77
2023/02/26 03:30:06;;;;;;;1.67;0.70;;;2.00;99.90;;;;;;4999037;28;20173;-77
2023/02/26 03:33:29;;;;;;;1.88;0.80;;;2.00;99.90;;;;;;4993543;28;20201;-77
2023/02/26 03:36:21;;;;;;;1.55;0.85;;;2.00;99.90;;;;;;4951486;28;20206;-77
2023/02/26 03:39:17;;;;;;;3.55;0.82;;;1.90;99.90;;;;;;5011155;28;20614;-77
2023/02/26 03:41:52;;;;;;;2.00;0.82;;;1.90;99.90;;;;;;5010314;28;20261;-76
2023/02/26 03:44:27;;;;;;;4.88;0.90;;;1.90;99.90;;;;;;4995919;28;20177;-77
2023/02/26 03:46:58;;;;;;;2.97;1.17;;;1.90;99.90;;;;;;5023652;28;20253;-77
2023/02/26 03:49:31;;;;;;;2.15;0.80;;;1.80;99.90;;;;;;5001812;28;20240;-76
2023/02/26 03:52:00;;;;;;;2.55;1.05;;;1.80;99.90;;;;;;5021696;28;20210;-79
2023/02/26 03:54:59;;;;;;;1.98;0.90;;;1.70;99.90;;;;;;5023035;28;20572;-79
2023/02/26 03:57:55;;;;;;;1.80;0.98;;;1.70;99.90;;;;;;5005439;28;20205;-79
2023/02/26 04:00:58;;;;;;;2.88;0.82;;;1.70;99.90;;;;;;4987182;28;20185;-79
2023/02/26 04:03:32;;;;;;;2.33;0.80;;;1.70;99.90;;;;;;4995415;28;20174;-79
2023/02/26 04:05:59;;;;;;;4.68;0.95;;;1.70;99.90;;;;;;4997099;28;20271;-79
2023/02/26 04:08:26;;;;;;;2.47;0.90;;;1.70;99.90;;;;;;5016735;28;20225;-79
2023/02/26 04:10:59;;;;;;;3.35;1.00;;;1.70;99.90;;;;;;5016337;28;20170;-78
2023/02/26 04:13:25;;;;;;;1.60;0.80;;;1.70;99.90;;;;;;5011713;28;20217;-78
2023/02/26 04:15:51;;;;;;;3.40;0.80;;;1.60;99.90;;;;;;4997976;28;20248;-78
2023/02/26 04:18:17;;;;;;;1.80;0.90;;;1.70;99.90;;;;;;5009224;28;20182;-79
2023/02/26 04:20:43;;;;;;;4.70;0.90;;;1.60;99.90;;;;;;5004815;28;20219;-79
2023/02/26 04:23:10;;;;;;;2.28;0.80;;;1.60;99.90;;;;;;5027816;28;20638;-79
2023/02/26 04:25:36;;;;;;;3.13;1.00;;;1.60;99.90;;;;;;5033027;28;20208;-79
2023/02/26 04:28:02;;;;;;;2.40;0.88;;;1.60;99.90;;;;;;5028291;28;20731;-79
2023/02/26 04:30:28;;;;;;;3.15;0.88;;;1.60;99.90;;;;;;5024957;28;20528;-79
2023/02/26 04:32:54;;;;;;;3.67;0.90;;;1.60;99.90;;;;;;5008330;28;20212;-78
2023/02/26 04:35:20;;;;;;;2.00;0.98;;;1.60;99.90;;;;;;5029761;28;20684;-78
2023/02/26 04:37:46;;;;;;;2.23;0.90;;;1.60;99.90;;;;;;5012517;28;20174;-78
2023/02/26 04:40:12;;;;;;;3.43;1.30;;;1.60;99.90;;;;;;5026718;28;20581;-78
2023/02/26 04:42:38;;;;;;;1.70;0.80;;;1.60;99.90;;;;;;5026920;28;20630;-78
2023/02/26 04:45:06;;;;;;;2.23;0.90;;;1.60;99.90;;;;;;5027358;28;20220;-79
2023/02/26 04:47:35;;;;;;;3.05;0.90;;;1.60;99.90;;;;;;5025774;28;20619;-78
2023/02/26 04:50:02;;;;;;;3.45;1.00;;;1.60;99.90;;;;;;5023483;28;20204;-78
2023/02/26 04:52:29;;;;;;;2.75;0.80;;;1.60;99.90;;;;;;5022817;28;20201;-78
2023/02/26 04:54:56;;;;;;;3.65;1.00;;;1.50;99.90;;;;;;5022776;28;20177;-78
2023/02/26 04:57:22;;;;;;;3.73;1.10;;;1.50;99.90;;;;;;5022278;28;20640;-78
2023/02/26 04:59:49;;;;;;;1.92;0.85;;;1.50;99.90;;;;;;5022820;28;20174;-77
2023/02/26 05:02:15;;;;;;;2.60;1.00;;;1.50;99.90;;;;;;5002237;28;20174;-77
2023/02/26 05:04:45;;;;;;;2.00;0.80;;;1.50;99.90;;;;;;5017733;28;20205;-77
2023/02/26 05:07:11;;;;;;;2.03;1.00;;;1.50;99.90;;;;;;5021770;28;20588;-77
2023/02/26 05:09:37;;;;;;;3.53;0.90;;;1.50;99.90;;;;;;5018556;28;20174;-77
2023/02/26 05:12:03;;;;;;;3.63;1.13;;;1.50;99.90;;;;;;5021732;28;20219;-78
2023/02/26 05:14:29;;;;;;;3.78;0.80;;;1.50;99.90;;;;;;5018364;28;20518;-77
2023/02/26 05:16:56;;;;;;;2.33;0.80;;;1.50;99.90;;;;;;5000194;28;20231;-77
2023/02/26 05:19:23;;;;;;;3.42;0.98;;;1.50;99.90;;;;;;5000157;28;20791;-77
2023/02/26 05:21:49;;;;;;;1.40;0.70;;;1.40;99.90;;;;;;5018122;28;20219;-78
2023/02/26 05:24:15;;;;;;;1.70;1.00;;;1.40;99.90;;;;;;5002796;28;20277;-77
2023/02/26 05:26:41;;;;;;;2.83;0.88;;;1.40;99.90;;;;;;5008090;28;20655;-76
2023/02/26 05:29:07;;;;;;;2.50;0.80;;;1.40;99.90;;;;;;5025194;28;20208;-79
2023/02/26 05:31:32;;;;;;;2.47;0.90;;;1.40;99.90;;;;;;5000457;28;20174;-77
2023/02/26 05:33:58;;;;;;;2.57;0.80;;;1.40;99.90;;;;;;5045472;28;20201;-79
2023/02/26 05:36:24;;;;;;;2.43;0.80;;;1.40;99.90;;;;;;5028414;28;20263;-78
2023/02/26 05:38:49;;;;;;;3.07;0.80;;;1.40;99.90;;;;;;5026572;28;20162;-77
2023/02/26 05:41:15;;;;;;;2.13;1.00;;;1.40;99.90;;;;;;5044460;28;20593;-77
2023/02/26 05:43:41;;;;;;;1.70;0.83;;;1.40;99.90;;;;;;5026984;28;20174;-78
2023/02/26 05:46:07;;;;;;;2.27;0.90;;;1.30;99.90;;;;;;5023902;28;20198;-77
2023/02/26 05:48:33;;;;;;;2.67;0.80;;;1.30;99.90;;;;;;5024140;28;20182;-77
2023/02/26 05:50:59;;;;;;;2.80;0.77;;;1.30;99.90;;;;;;5050028;28;20197;-77
2023/02/26 05:53:25;;;;;;;5.45;1.00;;;1.30;99.90;;;;;;5030489;28;20205;-77
2023/02/26 05:55:52;;;;;;;4.20;0.90;;;1.30;99.90;;;;;;5026842;28;20650;-77
2023/02/26 05:58:18;;;;;;;3.55;0.93;;;1.30;99.90;;;;;;5039385;28;20925;-78
2023/02/26 06:00:44;;;;;;;2.50;0.70;;;1.30;99.90;;;;;;5019132;28;20185;-77
2023/02/26 06:03:10;;;;;;;2.65;0.90;;;1.30;99.90;;;;;;5020950;28;20576;-78
2023/02/26 06:05:36;;;;;;;2.92;0.70;;;1.30;99.90;;;;;;5039638;28;20232;-78
2023/02/26 06:08:03;;;;;;;3.03;1.10;;;1.20;99.90;;;;;;5040658;28;20224;-78
2023/02/26 06:10:29;;;;;;;1.42;0.90;;;1.30;99.90;;;;;;5015186;28;20193;-78
2023/02/26 06:12:55;;;;;;;1.70;0.80;;;1.30;99.90;;;;;;5023023;28;20216;-78
2023/02/26 06:15:20;;;;;;;4.20;0.90;;;1.20;99.90;;;;;;5025620;28;20207;-78
2023/02/26 06:17:46;;;;;;;2.53;0.90;;;1.20;99.90;;;;;;5022717;28;20173;-78
2023/02/26 06:20:12;;;;;;;2.80;0.97;;;1.20;99.90;;;;;;5040820;28;20185;-79
2023/02/26 06:22:38;;;;;;;3.60;0.90;;;1.20;99.90;;;;;;5022148;28;20177;-78
2023/02/26 06:25:04;;;;;;;2.40;0.90;;;1.20;99.90;;;;;;5023574;28;20608;-79
2023/02/26 06:27:30;;;;;;;1.60;0.80;;;1.20;99.90;;;;;;5047371;28;20577;-78
2023/02/26 06:29:56;;;;;;;1.80;0.70;;;1.20;99.90;;;;;;5030594;28;20191;-78
2023/02/26 06:32:22;;;;;;;2.70;1.00;;;1.20;99.90;;;;;;5031146;28;20711;-78
2023/02/26 06:34:47;;;;;;;1.60;0.80;;;1.20;99.90;;;;;;5048520;28;20174;-79
2023/02/26 06:37:13;;;;;;;2.53;1.10;;;1.20;99.90;;;;;;5028745;28;20178;-78
2023/02/26 06:39:39;;;;;;;2.53;0.90;;;1.20;99.90;;;;;;5024745;28;20576;-77
2023/02/26 06:42:05;;;;;;;3.03;1.10;;;1.20;99.90;;;;;;5044123;28;20180;-78
2023/02/26 06:44:31;;;;;;;3.33;1.10;;;1.20;99.90;;;;;;5043320;28;20174;-78
2023/02/26 06:46:56;;;;;;;3.08;1.20;;;1.20;99.90;;;;;;5048677;28;20309;-78
2023/02/26 06:49:23;;;;;;;2.10;1.00;;;1.20;99.90;;;;;;5014146;28;20189;-78
2023/02/26 06:51:49;;;;;;;2.28;0.80;;;1.20;99.90;;;;;;5024212;28;20173;-78
2023/02/26 06:54:15;;;;;;;1.35;0.93;;;1.30;99.90;;;;;;5027984;28;20212;-78
2023/02/26 06:56:41;;;;;;;2.23;1.10;;;1.30;99.90;;;;;;5042828;28;20197;-78
2023/02/26 06:59:07;;;;;;;2.13;1.20;;;1.30;99.90;;;;;;5017374;28;20658;-78
2023/02/26 07:01:32;;;;;;;1.97;1.10;;;1.30;99.90;;;;;;5035477;28;20212;-77
2023/02/26 07:03:58;;;;;;;1.80;0.80;;;1.40;99.90;;;;;;5040827;28;20653;-77
2023/02/26 07:06:26;;;;;;;3.63;0.80;;;1.40;99.90;;;;;;5022440;28;20216;-77
2023/02/26 07:08:51;;;;;;;1.80;1.05;;;1.40;99.90;;;;;;5019250;28;20584;-78
2023/02/26 07:11:17;;;;;;;3.53;1.40;;;1.40;99.90;;;;;;4999612;28;20263;-78
2023/02/26 07:13:43;;;;;;;2.40;0.93;;;1.50;99.90;;;;;;5034433;28;20197;-78
2023/02/26 07:16:09;;;;;;;2.43;1.33;;;1.50;99.90;;;;;;5001924;28;20207;-80
2023/02/26 07:18:35;;;;;;;2.80;1.20;;;1.60;99.90;;;;;;5039453;28;20611;-78
2023/02/26 07:21:02;;;;;;;3.25;1.45;;;1.60;99.90;;;;;;5021082;28;20169;-79
2023/02/26 07:23:28;;;;;;;4.03;1.80;;;1.60;99.90;;;;;;5039119;28;20188;-78
2023/02/26 07:25:55;;;;;;;2.40;1.10;;;1.70;99.90;;;;;;5008637;28;20812;-78
2023/02/26 07:28:21;;;;;;;3.53;1.45;;;1.70;99.90;;;;;;5026593;28;20192;-78
2023/02/26 07:30:47;;;;;;;4.47;1.38;;;1.80;99.90;;;;;;5049594;28;20212;-77
2023/02/26 07:33:13;;;;;;;3.00;1.60;;;1.80;99.90;;;;;;5032556;28;20197;-78
2023/02/26 07:35:39;;;;;;;2.90;1.37;;;1.90;99.90;;;;;;5027832;28;20189;-79
2023/02/26 07:38:05;;;;;;;4.68;1.50;;;1.90;99.90;;;;;;5032594;28;20173;-80
2023/02/26 07:40:31;;;;;;;2.58;1.70;;;2.00;99.90;;;;;;5001307;28;20178;-79
2023/02/26 07:42:57;;;;;;;2.47;2.17;;;2.00;99.90;;;;;;4998098;28;20192;-79
2023/02/26 07:45:23;;;;;;;4.63;2.17;;;2.10;99.90;;;;;;5017013;28;20294;-80
2023/02/26 07:47:51;;;;;;;3.40;1.37;;;2.10;99.90;;;;;;5013102;28;20198;-80
2023/02/26 07:50:17;;;;;;;3.50;1.90;;;2.20;99.90;;;;;;4980763;28;20685;-80
2023/02/26 07:52:43;;;;;;;5.68;2.42;;;2.20;99.90;;;;;;4998366;28;20204;-80
2023/02/26 07:55:09;;;;;;;2.77;2.07;;;2.20;99.90;;;;;;5020471;28;20670;-80
2023/02/26 07:57:35;;;;;;;3.80;1.47;;;2.30;99.90;;;;;;4988104;28;20579;-81
2023/02/26 08:00:01;;;;;;;2.27;1.37;;;2.40;99.90;;;;;;5002934;28;20573;-81
2023/02/26 08:02:26;;;;;;;2.58;1.30;;;2.40;99.90;;;;;;5017723;28;20530;-80
2023/02/26 08:04:52;;;;;;;2.60;1.40;;;2.50;99.90;;;;;;5021669;28;20188;-79
2023/02/26 08:07:18;;;;;;;5.07;1.50;;;2.50;99.90;;;;;;5039926;28;20644;-80
2023/02/26 08:09:45;;;;;;;2.90;1.60;;;2.60;99.90;;;;;;5038429;28;20256;-80
2023/02/26 08:12:11;;;;;;;4.25;1.58;;;2.70;99.90;;;;;;5004708;28;20186;-80
2023/02/26 08:14:38;;;;;;;3.60;1.50;;;2.70;99.90;;;;;;5005190;28;20240;-80
2023/02/26 08:17:05;;;;;;;2.35;1.20;;;2.80;99.90;;;;;;5006111;28;20605;-81
2023/02/26 08:19:31;;;;;;;3.17;1.48;;;2.90;99.90;;;;;;5041837;28;20253;-80
2023/02/26 08:21:57;;;;;;;2.10;1.70;;;3.00;99.90;;;;;;5037462;28;20244;-80
2023/02/26 08:24:23;;;;;;;3.20;1.47;;;3.00;99.90;;;;;;5021190;28;20583;-80
2023/02/26 08:26:48;;;;;;;2.07;1.10;;;3.10;99.90;;;;;;5021784;28;20197;-80
2023/02/26 08:29:14;;;;;;;2.60;1.40;;;3.20;99.90;;;;;;5039361;28;20534;-81
2023/02/26 08:31:40;;;;;;;2.43;1.33;;;3.30;99.90;;;;;;5019582;28;20174;-81
2023/02/26 08:34:05;;;;;;;2.90;1.50;;;3.50;99.90;;;;;;5020212;28;20200;-81
2023/02/26 08:36:31;;;;;;;2.93;1.50;;;4.00;99.90;;;;;;5020358;28;20289;-81
2023/02/26 08:38:57;;;;;;;3.80;1.30;;;4.80;99.90;;;;;;5020255;28;20177;-81
2023/02/26 08:41:26;;;;;;;2.50;1.20;;;5.60;99.90;;;;;;5011058;28;20173;-82
2023/02/26 08:43:52;;;;;;;3.05;1.00;;;6.70;99.90;;;;;;5000025;28;20589;-81
2023/02/26 08:46:17;;;;;;;2.10;1.07;;;7.80;99.90;;;;;;5020643;28;20219;-82
2023/02/26 08:48:43;;;;;;;3.77;1.17;;;9.00;99.90;;;;;;5039018;28;20580;-82
2023/02/26 08:51:10;;;;;;;3.00;1.00;;;10.20;99.90;;;;;;5037924;28;20174;-82
2023/02/26 08:53:36;;;;;;;3.17;0.90;;;11.10;99.90;;;;;;5005792;28;20205;-81
2023/02/26 08:56:01;;;;;;;2.97;1.10;;;12.00;99.90;;;;;;5024259;28;21166;-81
2023/02/26 08:58:27;;;;;;;1.40;0.80;;;12.70;99.90;;;;;;5020585;28;20598;-82
2023/02/26 09:00:53;;;;;;;1.83;0.73;;;13.30;99.90;;;;;;5039732;28;20610;-81
2023/02/26 09:03:19;;;;;;;2.00;0.70;;;14.10;99.90;;;;;;5037230;28;20169;-81
2023/02/26 09:05:44;;;;;;;3.27;1.10;;;14.80;99.90;;;;;;5018880;28;20194;-81
2023/02/26 09:08:14;;;;;;;1.87;0.77;;;15.30;99.90;;;;;;5034673;28;20170;-81
2023/02/26 09:10:40;;;;;;;2.70;0.90;;;15.70;99.90;;;;;;5015951;28;20177;-81
2023/02/26 09:13:06;;;;;;;2.70;0.70;;;15.90;99.90;;;;;;5016261;28;20612;-82
2023/02/26 09:15:31;;;;;;;2.90;0.80;;;16.30;99.90;;;;;;5016137;28;20677;-80
2023/02/26 09:17:58;;;;;;;2.13;0.90;;;16.50;99.90;;;;;;5000955;28;20269;-81
2023/02/26 09:20:24;;;;;;;2.57;0.90;;;16.80;97.40;;;;;;5029628;28;20596;-80
2023/02/26 09:22:49;;;;;;;2.17;0.93;;;17.20;99.90;;;;;;5034307;28;20933;-80
2023/02/26 09:25:15;;;;;;;2.00;0.80;;;17.60;97.20;;;;;;5034705;28;20198;-80
2023/02/26 09:27:41;;;;;;;2.40;0.70;;;18.00;99.60;;;;;;5000835;28;20178;-80
2023/02/26 09:30:08;;;;;;;1.80;0.80;;;18.40;98.40;;;;;;5034432;28;20591;-79
2023/02/26 09:32:34;;;;;;;1.63;0.73;;;18.80;97.90;;;;;;5034085;28;20197;-80
2023/02/26 09:35:01;;;;;;;2.33;0.90;;;18.90;96.70;;;;;;5034804;28;20610;-80
2023/02/26 09:37:27;;;;;;;2.53;0.97;;;18.90;91.70;;;;;;5017279;28;20188;-80
2023/02/26 09:39:52;;;;;;;1.60;0.70;;;18.90;91.10;;;;;;5018275;28;20572;-80
2023/02/26 09:43:01;;;;;;;1.80;0.70;;;19.00;91.50;;;;;;5033149;28;20274;-80
2023/02/26 09:45:34;;;;;;;2.40;0.83;;;19.30;89.30;;;;;;5013504;28;20210;-79
2023/02/26 09:48:04;;;;;;;1.90;0.70;;;19.60;89.20;;;;;;5033518;28;20630;-80
2023/02/26 09:50:53;;;;;;;1.93;0.73;;;19.90;90.80;;;;;;5016173;28;20588;-79
2023/02/26 09:53:23;;;;;;;2.57;0.80;;;20.20;83.60;;;;;;5014838;28;20974;-80
2023/02/26 09:55:52;;;;;;;2.90;0.60;;;20.40;83.40;;;;;;5031951;28;20624;-80
2023/02/26 09:58:39;;;;;;;3.73;0.90;;;20.60;79.80;;;;;;5007977;28;20615;-80
2023/02/26 10:01:28;;;;;;;3.33;0.90;;;20.70;79.60;;;;;;5031737;28;20702;-82
2023/02/26 10:04:01;;;;;;;1.63;0.60;;;20.90;77.10;;;;;;5007459;28;20643;-81
2023/02/26 10:07:00;;;;;;;1.77;0.70;;;20.70;64.90;;;;;;5010141;28;20636;-81
2023/02/26 10:09:52;;;;;;;2.00;0.90;;;20.30;70.70;;;;;;5015998;28;20580;-81
2023/02/26 10:12:23;;;;;;;1.80;0.70;;;20.00;65.30;;;;;;5023325;28;20608;-81
2023/02/26 10:14:59;;;;;;;2.77;0.60;;;19.70;66.90;;;;;;5008721;28;20647;-82
2023/02/26 10:17:31;;;;;;;2.33;0.60;;;19.20;59.40;;;;;;5010478;28;20654;-82
2023/02/26 10:20:21;;;;;;;2.30;0.90;;;18.90;66.70;;;;;;5014059;28;20684;-82
2023/02/26 10:22:49;;;;;;;2.43;0.93;;;18.70;66.10;;;;;;5000973;28;20705;-82
2023/02/26 10:25:20;;;;;;;2.53;0.70;;;18.50;67.10;;;;;;5015055;28;20690;-82
2023/02/26 10:28:11;;;;;;;2.07;0.90;;;18.20;65.00;;;;;;4998514;28;20687;-82
2023/02/26 10:31:12;;;;;;;2.30;0.60;;;18.20;66.30;;;;;;5031880;28;20579;-82
2023/02/26 10:33:50;;;;;;;2.00;0.70;;;17.80;61.00;;;;;;4979675;28;20590;-83
2023/02/26 10:36:23;;;;;;;1.63;0.60;;;17.40;61.10;;;;;;5043990;28;20738;-82
2023/02/26 10:38:53;;;;;;;2.10;0.60;;;16.70;56.60;;;;;;5033163;28;20576;-82
2023/02/26 10:41:26;;;;;;;1.73;0.60;;;16.20;59.50;;;;;;5013126;28;20687;-82
2023/02/26 10:44:16;;;;;;;2.63;0.70;;;15.80;60.10;;;;;;5032857;28;20632;-83
2023/02/26 10:46:49;;;;;;;1.30;0.60;;;15.60;63.50;;;;;;5026162;28;20719;-82
2023/02/26 10:49:52;;;;;;;1.93;0.57;;;15.40;64.10;;;;;;5032932;28;20575;-83
2023/02/26 10:52:30;;;;;;;3.63;0.70;;;15.20;62.40;;;;;;5031855;28;20668;-82
2023/02/26 10:55:16;;;;;;;2.13;0.60;;;14.80;60.60;;;;;;5014155;28;20599;-82
2023/02/26 10:57:49;;;;;;;2.73;0.70;;;14.50;60.40;;;;;;5037672;28;20634;-79
2023/02/26 11:00:18;;;;;;;1.50;0.53;;;14.20;59.30;;;;;;5015895;28;20596;-80
2023/02/26 11:02:53;;;;;;;1.90;0.60;;;13.80;59.70;;;;;;5033489;28;20677;-80
2023/02/26 11:05:28;;;;;;;1.40;0.60;;;13.50;57.90;;;;;;5000986;28;20616;-78
2023/02/26 11:07:59;;;;;;;1.40;0.70;;;13.10;59.20;;;;;;5017364;28;20588;-78
2023/02/26 11:10:36;;;;;;;1.93;0.70;;;12.80;59.50;;;;;;5039372;28;20590;-78
2023/02/26 11:13:03;;;;;;;2.67;0.80;;;12.50;58.30;;;;;;5015638;28;20634;-80
2023/02/26 11:15:29;;;;;;;1.65;0.60;;;12.20;58.10;;;;;;5013855;28;20209;-81
2023/02/26 11:17:57;;;;;;;2.00;0.80;;;11.70;56.50;;;;;;5031388;28;20177;-80
2023/02/26 11:20:40;;;;;;;2.33;0.60;;;11.30;55.30;;;;;;5010942;28;20189;-78
2023/02/26 11:23:19;;;;;;;2.75;0.60;;;10.90;56.90;;;;;;5012125;28;20180;-80
2023/02/26 11:25:45;;;;;;;1.50;0.63;;;10.60;57.50;;;;;;4998995;28;20261;-80
2023/02/26 11:28:36;;;;;;;4.03;0.60;;;10.30;58.20;;;;;;5031033;28;20170;-81
2023/02/26 11:31:06;;;;;;;2.80;0.60;;;10.00;55.80;;;;;;5013159;28;20184;-80
2023/02/26 11:33:38;;;;;;;1.58;0.50;;;9.70;58.40;;;;;;5030512;28;20209;-80
2023/02/26 11:36:11;;;;;;;2.03;0.60;;;9.50;59.70;;;;;;5009827;28;20194;-81
2023/02/26 11:38:37;;;;;;;1.90;0.75;;;9.50;62.20;;;;;;4993314;28;20221;-81
2023/02/26 11:41:04;;;;;;;3.23;0.70;;;9.70;65.40;;;;;;5011044;28;20171;-82
2023/02/26 11:43:40;;;;;;;2.17;0.60;;;9.90;63.80;;;;;;5022800;28;20184;-82
2023/02/26 11:46:07;;;;;;;1.67;0.63;;;10.10;63.10;;;;;;5030447;28;20622;-82
2023/02/26 11:48:40;;;;;;;3.30;0.60;;;10.10;60.80;;;;;;4996661;28;20201;-82
2023/02/26 11:51:08;;;;;;;2.05;0.60;;;10.00;59.50;;;;;;4996198;28;20200;-81
2023/02/26 11:53:36;;;;;;;2.20;0.75;;;9.90;58.80;;;;;;5012603;28;20208;-81
2023/02/26 11:56:09;;;;;;;1.65;0.80;;;9.70;58.30;;;;;;4996512;28;20201;-81
2023/02/26 11:58:38;;;;;;;1.58;0.70;;;9.50;58.40;;;;;;5013256;28;20174;-81
2023/02/26 12:01:07;;;;;;;2.33;0.60;;;9.20;57.70;;;;;;5032216;28;20264;-79
2023/02/26 12:03:35;;;;;;;1.88;0.70;;;9.00;59.50;;;;;;5013253;28;20177;-81
2023/02/26 12:06:03;;;;;;;2.10;0.73;;;8.80;59.60;;;;;;5013766;28;20194;-82
2023/02/26 12:08:41;;;;;;;2.50;0.60;;;8.70;60.90;;;;;;5012486;28;20188;-80
2023/02/26 12:11:33;;;;;;;1.70;0.70;;;8.90;63.00;;;;;;5012806;28;20267;-80
2023/02/26 12:14:23;;;;;;;1.40;0.80;;;9.10;65.60;;;;;;5012616;28;20197;-79
2023/02/26 12:17:08;;;;;;;1.50;0.55;;;9.50;67.90;;;;;;5009857;28;20202;-78
2023/02/26 12:19:40;;;;;;;1.90;0.65;;;9.80;66.10;;;;;;5012508;28;20220;-77
2023/02/26 12:22:32;;;;;;;1.90;0.70;;;10.20;66.40;;;;;;4996521;28;20193;-77
2023/02/26 12:25:42;;;;;;;2.80;0.63;;;10.40;62.60;;;;;;5030194;28;20577;-78
2023/02/26 12:28:36;;;;;;;1.63;0.70;;;10.80;62.10;;;;;;4915006;29;20593;-77
2023/02/26 12:31:20;;;;;;;2.13;0.73;;;11.10;65.50;;;;;;4930374;29;20577;-77
2023/02/26 12:33:46;;;;;;;5.78;0.80;;;11.30;65.30;;;;;;4999079;28;20659;-78
2023/02/26 12:36:37;;;;;;;2.33;0.80;;;11.30;60.70;;;;;;5030374;28;20190;-78
2023/02/26 12:39:03;;;;;;;1.77;0.70;;;11.00;58.40;;;;;;5017904;28;20195;-79
2023/02/26 12:42:02;;;;;;;2.25;1.00;;;10.70;59.20;;;;;;5013663;28;20166;-79
2023/02/26 12:44:28;;;;;;;1.70;0.90;;;10.40;58.70;;;;;;5017235;28;20174;-79
2023/02/26 12:47:02;;;;;;;1.70;0.73;;;10.10;58.40;;;;;;5037376;28;20584;-78
2023/02/26 12:49:41;;;;;;;1.90;0.82;;;9.80;58.80;;;;;;5003842;28;20223;-78
2023/02/26 12:52:16;;;;;;;2.80;0.60;;;9.50;57.70;;;;;;5007309;28;20677;-78
2023/02/26 12:55:09;;;;;;;2.15;0.80;;;9.30;59.30;;;;;;5040027;28;20177;-78
2023/02/26 12:57:54;;;;;;;2.10;0.85;;;9.20;59.60;;;;;;5014757;28;20524;-78
2023/02/26 13:00:41;;;;;;;2.47;0.68;;;9.00;59.60;;;;;;4996971;28;20641;-78
2023/02/26 13:03:07;;;;;;;1.70;0.68;;;8.70;57.20;;;;;;4996466;28;20178;-78
2023/02/26 13:05:48;;;;;;;4.20;1.03;;;8.60;58.90;;;;;;4996806;28;20199;-78
2023/02/26 13:08:22;;;;;;;4.78;0.90;;;8.40;58.00;;;;;;5026434;28;20185;-78
2023/02/26 13:11:06;;;;;;;2.35;0.90;;;8.20;56.80;;;;;;5015599;28;20177;-79
2023/02/26 13:13:44;;;;;;;2.20;0.90;;;8.10;58.10;;;;;;5012962;28;20206;-78
2023/02/26 13:16:33;;;;;;;1.98;0.75;;;7.80;55.10;;;;;;5015683;28;20213;-78
2023/02/26 13:19:15;;;;;;;3.15;0.90;;;7.80;58.70;;;;;;5010691;28;20189;-80
2023/02/26 13:21:55;;;;;;;1.80;0.80;;;7.60;58.10;;;;;;5055360;28;20174;-80